createdAt,value
2023-10-07T00:01:26.764Z,2.60
2023-10-07T00:04:15.426Z,2.60
2023-10-07T00:07:05.396Z,2.60
2023-10-07T00:09:52.478Z,2.80
2023-10-07T00:12:39.045Z,2.70
2023-10-07T00:15:30.476Z,2.30
2023-10-07T00:18:19.664Z,2.70
2023-10-07T00:21:08.383Z,2.60
2023-10-07T00:23:55.058Z,2.40
2023-10-07T00:26:41.749Z,2.60
2023-10-07T00:29:37.544Z,2.70
2023-10-07T00:32:34.242Z,2.80
2023-10-07T00:35:21.701Z,2.70
2023-10-07T00:38:16.332Z,2.70
2023-10-07T00:41:05.245Z,2.70
2023-10-07T00:49:50.050Z,2.60
2023-10-07T00:52:56.726Z,2.40
2023-10-07T00:55:48.139Z,2.80
2023-10-07T00:58:36.811Z,2.50
2023-10-07T01:01:23.860Z,2.70
2023-10-07T01:04:14.930Z,2.40
2023-10-07T01:07:04.793Z,2.40
2023-10-07T01:10:10.980Z,2.30
2023-10-07T01:13:04.212Z,2.10
2023-10-07T01:15:51.635Z,2.40
2023-10-07T01:18:40.694Z,2.30
2023-10-07T01:21:35.132Z,2.60
2023-10-07T01:24:45.039Z,2.60
2023-10-07T01:27:36.736Z,2.80
2023-10-07T01:30:35.732Z,2.60
2023-10-07T01:33:22.854Z,2.60
2023-10-07T01:36:17.941Z,2.70
2023-10-07T01:39:08.288Z,2.50
2023-10-07T01:41:55.296Z,2.50
2023-10-07T01:44:42.557Z,2.70
2023-10-07T01:47:31.237Z,2.60
2023-10-07T01:50:20.147Z,2.90
2023-10-07T01:53:07.163Z,2.70
2023-10-07T01:55:54.088Z,3.00
2023-10-07T01:58:41.125Z,3.10
2023-10-07T02:01:29.802Z,2.90
2023-10-07T02:04:20.104Z,2.60
2023-10-07T02:07:10.546Z,2.80
2023-10-07T02:09:59.379Z,3.20
2023-10-07T02:12:47.753Z,3.30
2023-10-07T02:15:38.345Z,3.20
2023-10-07T02:18:29.188Z,3.20
2023-10-07T02:21:21.848Z,3.20
2023-10-07T02:24:12.437Z,2.60
2023-10-07T02:27:18.723Z,2.70
2023-10-07T02:30:06.479Z,2.60
2023-10-07T02:32:54.219Z,2.70
2023-10-07T02:35:47.090Z,2.50
2023-10-07T02:38:40.537Z,3.00
2023-10-07T02:41:27.286Z,2.80
2023-10-07T02:44:20.992Z,2.90
2023-10-07T02:47:13.623Z,2.80
2023-10-07T02:50:04.160Z,2.60
2023-10-07T02:52:51.525Z,2.70
2023-10-07T02:55:48.832Z,3.20
2023-10-07T02:58:37.540Z,2.90
2023-10-07T03:01:27.289Z,2.80
2023-10-07T03:04:14.035Z,3.00
2023-10-07T03:07:01.907Z,2.70
2023-10-07T03:10:05.888Z,2.40
2023-10-07T03:16:08.664Z,2.80
2023-10-07T03:19:01.989Z,3.00
2023-10-07T03:21:54.935Z,3.10
2023-10-07T03:24:50.012Z,3.20
2023-10-07T03:27:40.718Z,3.00
2023-10-07T03:30:28.978Z,3.10
2023-10-07T03:33:17.236Z,3.00
2023-10-07T03:36:04.580Z,3.20
2023-10-07T03:39:11.750Z,3.10
2023-10-07T03:42:01.021Z,2.80
2023-10-07T03:44:48.825Z,3.10
2023-10-07T03:47:36.061Z,3.20
2023-10-07T03:50:36.213Z,3.20
2023-10-07T03:53:25.373Z,3.30
2023-10-07T03:56:14.104Z,3.60
2023-10-07T03:59:01.460Z,3.20
2023-10-07T04:01:55.012Z,3.20
2023-10-07T04:04:43.170Z,3.30
2023-10-07T04:07:32.621Z,2.90
2023-10-07T04:10:32.659Z,3.10
2023-10-07T04:13:26.037Z,3.00
2023-10-07T04:16:24.920Z,3.30
2023-10-07T04:19:31.868Z,2.70
2023-10-07T04:22:18.576Z,3.10
2023-10-07T04:25:14.626Z,3.00
2023-10-07T04:28:08.025Z,3.10
2023-10-07T04:30:55.346Z,3.20
2023-10-07T04:33:42.923Z,3.30
2023-10-07T04:36:37.835Z,3.70
2023-10-07T04:39:29.842Z,3.20
2023-10-07T04:42:24.135Z,3.50
2023-10-07T04:45:23.516Z,3.00
2023-10-07T04:48:25.940Z,3.40
2023-10-07T04:51:14.105Z,3.20
2023-10-07T04:54:01.613Z,3.50
2023-10-07T04:56:55.395Z,3.60
2023-10-07T04:59:47.325Z,3.70
2023-10-07T05:02:34.147Z,3.20
2023-10-07T05:05:21.469Z,3.40
2023-10-07T05:08:20.762Z,3.60
2023-10-07T05:11:07.863Z,3.40
2023-10-07T05:13:57.099Z,3.70
2023-10-07T05:16:48.171Z,3.80
2023-10-07T05:19:35.305Z,3.60
2023-10-07T05:22:24.562Z,3.40
2023-10-07T05:25:11.343Z,3.80
2023-10-07T05:27:58.863Z,4.20
2023-10-07T05:30:52.008Z,3.60
2023-10-07T05:33:39.025Z,3.40
2023-10-07T05:36:31.254Z,3.40
2023-10-07T05:39:18.917Z,3.60
2023-10-07T05:42:07.465Z,3.40
2023-10-07T05:44:54.227Z,3.70
2023-10-07T05:47:40.815Z,3.30
2023-10-07T05:50:28.649Z,3.40
2023-10-07T05:53:17.191Z,3.90
2023-10-07T05:56:06.893Z,3.50
2023-10-07T05:58:56.714Z,3.40
2023-10-07T06:01:44.511Z,3.80
2023-10-07T06:04:31.429Z,3.60
2023-10-07T06:07:22.230Z,3.60
2023-10-07T06:10:12.133Z,3.80
2023-10-07T06:12:59.216Z,3.30
2023-10-07T06:15:47.106Z,3.70
2023-10-07T06:18:35.896Z,3.80
2023-10-07T06:21:29.109Z,3.40
2023-10-07T06:24:22.403Z,3.90
2023-10-07T06:27:13.474Z,4.00
2023-10-07T06:30:00.993Z,4.00
2023-10-07T06:32:56.553Z,3.80
2023-10-07T06:35:43.596Z,3.40
2023-10-07T06:38:34.896Z,5.10
2023-10-07T06:41:22.584Z,3.60
2023-10-07T06:44:10.937Z,3.70
2023-10-07T06:46:58.222Z,3.50
2023-10-07T06:49:45.375Z,3.70
2023-10-07T06:52:33.445Z,4.10
2023-10-07T06:55:20.024Z,4.10
2023-10-07T06:58:06.808Z,3.90
2023-10-07T07:00:57.876Z,4.10
2023-10-07T07:03:46.053Z,4.00
2023-10-07T07:06:36.306Z,3.90
2023-10-07T07:09:42.044Z,4.40
2023-10-07T07:12:28.827Z,4.50
2023-10-07T07:15:28.033Z,4.10
2023-10-07T07:18:14.941Z,4.00
2023-10-07T07:21:02.576Z,4.40
2023-10-07T07:23:50.917Z,3.90
2023-10-07T07:26:41.114Z,4.40
2023-10-07T07:29:28.936Z,4.20
2023-10-07T07:32:19.108Z,4.20
2023-10-07T07:35:06.896Z,4.00
2023-10-07T07:37:54.523Z,4.30
2023-10-07T07:40:44.211Z,4.30
2023-10-07T07:43:31.961Z,4.70
2023-10-07T07:46:19.800Z,4.70
2023-10-07T07:49:08.158Z,4.20
2023-10-07T07:51:55.825Z,4.40
2023-10-07T07:54:45.425Z,3.90
2023-10-07T07:57:32.205Z,4.30
2023-10-07T08:00:22.078Z,4.10
2023-10-07T08:03:09.186Z,3.80
2023-10-07T08:05:56.225Z,3.70
2023-10-07T08:08:42.965Z,3.70
2023-10-07T08:11:39.782Z,4.20
2023-10-07T08:14:26.648Z,3.50
2023-10-07T08:17:20.420Z,4.00
2023-10-07T08:20:11.545Z,3.80
2023-10-07T08:22:58.577Z,4.40
2023-10-07T08:25:48.513Z,3.90
2023-10-07T08:28:42.184Z,4.80
2023-10-07T08:31:38.563Z,5.80
2023-10-07T08:34:33.414Z,5.50
2023-10-07T08:37:20.192Z,4.40
2023-10-07T08:40:25.012Z,4.00
2023-10-07T08:43:19.644Z,4.00
2023-10-07T08:46:10.916Z,4.20
2023-10-07T08:49:05.762Z,4.30
2023-10-07T08:51:56.369Z,3.60
2023-10-07T08:54:46.090Z,3.70
2023-10-07T08:57:36.048Z,3.60
2023-10-07T09:00:23.125Z,3.80
2023-10-07T09:03:16.324Z,4.00
2023-10-07T09:06:07.946Z,3.80
2023-10-07T09:08:55.241Z,6.40
2023-10-07T09:11:42.325Z,3.60
2023-10-07T09:14:29.961Z,3.40
2023-10-07T09:17:17.481Z,3.80
2023-10-07T09:20:08.353Z,3.40
2023-10-07T09:23:02.299Z,3.70
2023-10-07T09:28:40.421Z,3.90
2023-10-07T09:31:28.556Z,3.70
2023-10-07T09:34:32.292Z,3.80
2023-10-07T09:37:22.701Z,4.00
2023-10-07T09:40:21.150Z,3.50
2023-10-07T09:43:21.425Z,3.60
2023-10-07T09:46:09.216Z,4.30
2023-10-07T09:48:58.709Z,3.50
2023-10-07T09:51:49.406Z,3.90
2023-10-07T09:54:58.532Z,3.50
2023-10-07T09:57:56.408Z,3.50
2023-10-07T10:01:05.111Z,3.70
2023-10-07T10:04:15.914Z,3.50
2023-10-07T10:07:08.896Z,3.60
2023-10-07T10:10:08.586Z,3.10
2023-10-07T10:13:07.597Z,3.50
2023-10-07T10:16:01.288Z,3.70
2023-10-07T10:19:14.646Z,3.50
2023-10-07T10:22:12.054Z,3.70
2023-10-07T10:25:10.986Z,3.20
2023-10-07T10:28:04.414Z,3.50
2023-10-07T10:30:55.212Z,3.50
2023-10-07T10:33:43.785Z,3.00
2023-10-07T10:36:33.989Z,3.40
2023-10-07T10:39:40.494Z,3.50
2023-10-07T10:42:29.230Z,4.40
2023-10-07T10:45:27.686Z,5.00
2023-10-07T10:48:16.205Z,3.70
2023-10-07T10:51:07.017Z,3.60
2023-10-07T10:53:54.032Z,4.60
2023-10-07T10:56:58.741Z,5.30
2023-10-07T10:59:49.178Z,5.40
2023-10-07T11:02:40.781Z,7.40
2023-10-07T11:05:28.104Z,5.80
2023-10-07T11:08:15.212Z,5.00
2023-10-07T11:11:03.285Z,4.40
2023-10-07T11:13:56.452Z,4.20
2023-10-07T11:16:50.375Z,3.40
2023-10-07T11:22:38.417Z,3.50
2023-10-07T11:28:16.748Z,6.00
2023-10-07T11:31:04.022Z,6.70
2023-10-07T11:33:52.056Z,5.30
2023-10-07T11:36:46.775Z,4.30
2023-10-07T11:39:37.052Z,3.80
2023-10-07T11:42:24.651Z,4.20
2023-10-07T11:45:12.728Z,8.60
2023-10-07T11:48:00.286Z,10.90
2023-10-07T11:50:49.341Z,6.20
2023-10-07T11:53:37.202Z,4.00
2023-10-07T11:56:24.062Z,4.50
2023-10-07T11:59:11.108Z,4.30
2023-10-07T12:01:58.881Z,4.70
2023-10-07T12:04:48.635Z,4.50
2023-10-07T12:07:37.284Z,4.60
2023-10-07T12:10:24.331Z,5.10
2023-10-07T12:13:16.350Z,5.00
2023-10-07T12:16:05.798Z,4.50
2023-10-07T12:18:54.136Z,3.90
2023-10-07T12:21:41.010Z,4.00
2023-10-07T12:24:28.323Z,5.10
2023-10-07T12:27:15.066Z,4.20
2023-10-07T12:30:01.805Z,4.70
2023-10-07T12:32:49.817Z,4.70
2023-10-07T12:35:36.646Z,5.60
2023-10-07T12:38:25.745Z,5.10
2023-10-07T12:41:15.586Z,4.90
2023-10-07T12:44:04.296Z,4.50
2023-10-07T12:46:51.244Z,4.30
2023-10-07T12:49:41.860Z,3.70
2023-10-07T12:52:30.912Z,4.10
2023-10-07T12:55:18.313Z,4.50
2023-10-07T12:58:10.467Z,4.60
2023-10-07T13:00:58.511Z,4.50
2023-10-07T13:03:45.695Z,5.80
2023-10-07T13:06:33.461Z,11.00
2023-10-07T13:09:21.441Z,7.60
2023-10-07T13:12:16.999Z,16.30
2023-10-07T13:15:04.553Z,10.40
2023-10-07T13:17:51.553Z,13.10
2023-10-07T13:20:40.396Z,17.80
2023-10-07T13:23:27.365Z,10.20
2023-10-07T13:26:16.455Z,9.30
2023-10-07T13:29:11.671Z,15.20
2023-10-07T13:32:07.076Z,12.10
2023-10-07T13:34:54.152Z,15.70
2023-10-07T13:37:41.027Z,18.10
2023-10-07T13:40:31.660Z,17.70
2023-10-07T13:43:19.134Z,10.50
2023-10-07T13:46:13.899Z,7.90
2023-10-07T13:49:01.600Z,5.60
2023-10-07T13:51:49.712Z,7.00
2023-10-07T13:54:40.252Z,6.00
2023-10-07T13:57:29.103Z,5.80
2023-10-07T14:00:50.894Z,7.10
2023-10-07T14:03:41.076Z,11.40
2023-10-07T14:06:29.072Z,8.90
2023-10-07T14:09:25.871Z,6.60
2023-10-07T14:12:12.570Z,8.50
2023-10-07T14:15:05.069Z,7.40
2023-10-07T14:17:51.873Z,5.50
2023-10-07T14:20:40.088Z,6.00
2023-10-07T14:23:28.934Z,6.20
2023-10-07T14:26:15.796Z,5.20
2023-10-07T14:29:07.478Z,5.60
2023-10-07T14:31:55.526Z,5.70
2023-10-07T14:34:42.513Z,5.70
2023-10-07T14:37:29.298Z,5.70
2023-10-07T14:40:19.430Z,5.60
2023-10-07T14:43:06.882Z,5.70
2023-10-07T14:45:54.266Z,5.30
2023-10-07T14:48:47.396Z,5.80
2023-10-07T14:51:34.765Z,6.20
2023-10-07T14:54:22.776Z,6.00
2023-10-07T14:57:09.639Z,5.90
2023-10-07T14:59:58.099Z,5.80
2023-10-07T15:02:48.012Z,6.30
2023-10-07T15:05:38.668Z,7.00
2023-10-07T15:08:25.683Z,6.90
2023-10-07T15:11:21.109Z,6.70
2023-10-07T15:14:07.701Z,7.10
2023-10-07T15:16:54.709Z,12.50
2023-10-07T15:19:41.429Z,10.80
2023-10-07T15:22:29.581Z,13.30
2023-10-07T15:25:16.659Z,12.50
2023-10-07T15:28:04.539Z,13.90
2023-10-07T15:30:52.011Z,22.50
2023-10-07T15:33:54.646Z,18.70
2023-10-07T15:39:36.047Z,9.80
2023-10-07T15:42:24.538Z,8.60
2023-10-07T15:45:15.460Z,6.40
2023-10-07T15:48:06.177Z,5.10
2023-10-07T15:50:53.591Z,10.60
2023-10-07T15:53:41.578Z,16.10
2023-10-07T15:56:31.786Z,15.00
2023-10-07T15:59:20.351Z,15.30
2023-10-07T16:02:07.047Z,63.60
2023-10-07T16:04:53.618Z,27.70
2023-10-07T16:07:40.377Z,24.30
2023-10-07T16:10:27.364Z,19.40
2023-10-07T16:13:14.541Z,21.10
2023-10-07T16:16:06.857Z,41.40
2023-10-07T16:18:54.041Z,21.00
2023-10-07T16:21:42.184Z,23.10
2023-10-07T16:24:29.914Z,7.50
2023-10-07T16:27:17.100Z,5.00
2023-10-07T16:30:06.953Z,7.90
2023-10-07T16:32:53.798Z,5.90
2023-10-07T16:35:41.037Z,5.30
2023-10-07T16:38:27.821Z,4.70
2023-10-07T16:41:20.722Z,4.90
2023-10-07T16:44:07.391Z,4.60
2023-10-07T16:46:54.451Z,4.20
2023-10-07T16:49:42.233Z,3.00
2023-10-07T16:52:29.205Z,4.80
2023-10-07T16:55:15.996Z,6.50
2023-10-07T16:58:05.525Z,11.40
2023-10-07T17:00:53.338Z,6.10
2023-10-07T17:03:40.726Z,9.10
2023-10-07T17:06:28.655Z,5.40
2023-10-07T17:09:16.637Z,3.10
2023-10-07T17:12:03.559Z,4.00
2023-10-07T17:14:53.741Z,4.50
2023-10-07T17:17:40.880Z,3.80
2023-10-07T17:20:35.154Z,4.90
2023-10-07T17:23:21.998Z,4.60
2023-10-07T17:26:08.949Z,4.10
2023-10-07T17:28:55.824Z,5.30
2023-10-07T17:31:48.728Z,9.70
2023-10-07T17:34:35.668Z,5.70
2023-10-07T17:37:27.169Z,4.70
2023-10-07T17:40:15.430Z,4.20
2023-10-07T17:43:03.180Z,4.20
2023-10-07T17:45:50.274Z,3.70
2023-10-07T17:48:37.116Z,5.70
2023-10-07T17:51:23.706Z,4.40
2023-10-07T17:54:16.602Z,3.50
2023-10-07T17:57:03.431Z,5.00
2023-10-07T17:59:49.979Z,4.20
2023-10-07T18:02:38.515Z,4.90
2023-10-07T18:05:27.678Z,3.60
2023-10-07T18:08:14.595Z,4.00
2023-10-07T18:11:03.019Z,4.10
2023-10-07T18:13:49.924Z,3.80
2023-10-07T18:16:36.832Z,3.00
2023-10-07T18:19:28.961Z,3.60
2023-10-07T18:22:16.704Z,3.40
2023-10-07T18:25:04.273Z,3.80
2023-10-07T18:27:51.865Z,3.20
2023-10-07T18:30:38.863Z,3.20
2023-10-07T18:33:25.323Z,3.40
2023-10-07T18:36:11.876Z,3.50
2023-10-07T18:38:58.918Z,3.60
2023-10-07T18:41:46.102Z,3.70
2023-10-07T18:44:34.541Z,3.60
2023-10-07T18:47:21.410Z,3.30
2023-10-07T18:50:09.333Z,3.00
2023-10-07T18:52:55.761Z,3.30
2023-10-07T18:55:42.650Z,3.60
2023-10-07T18:58:30.309Z,3.80
2023-10-07T19:01:17.065Z,3.10
2023-10-07T19:04:04.952Z,2.80
2023-10-07T19:06:54.296Z,3.10
2023-10-07T19:09:43.615Z,3.00
2023-10-07T19:12:31.179Z,2.60
2023-10-07T19:15:17.875Z,2.90
2023-10-07T19:18:05.052Z,5.40
2023-10-07T19:20:56.366Z,2.70
2023-10-07T19:23:43.569Z,3.50
2023-10-07T19:26:30.377Z,3.00
2023-10-07T19:29:18.216Z,2.90
2023-10-07T19:32:05.742Z,2.90
2023-10-07T19:34:55.598Z,3.80
2023-10-07T19:37:42.431Z,3.60
2023-10-07T19:40:29.666Z,3.20
2023-10-07T19:43:20.372Z,4.80
2023-10-07T19:46:08.923Z,3.00
2023-10-07T19:48:56.043Z,2.90
2023-10-07T19:51:42.628Z,3.20
2023-10-07T19:54:29.713Z,2.90
2023-10-07T19:57:16.796Z,3.30
2023-10-07T20:00:05.009Z,3.60
2023-10-07T20:02:56.206Z,3.20
2023-10-07T20:05:45.600Z,3.10
2023-10-07T20:08:32.602Z,3.10
2023-10-07T20:11:23.945Z,3.10
2023-10-07T20:14:11.811Z,2.90
2023-10-07T20:16:59.346Z,2.90
2023-10-07T20:19:46.281Z,2.70
2023-10-07T20:22:34.637Z,3.10
2023-10-07T20:25:22.468Z,3.00
2023-10-07T20:28:09.426Z,2.60
2023-10-07T20:30:56.391Z,2.70
2023-10-07T20:33:43.620Z,2.50
2023-10-07T20:36:30.756Z,2.70
2023-10-07T20:39:17.742Z,3.00
2023-10-07T20:42:04.528Z,3.10
2023-10-07T20:44:51.512Z,2.70
2023-10-07T20:47:38.636Z,2.70
2023-10-07T20:50:25.344Z,2.40
2023-10-07T20:53:11.875Z,2.70
2023-10-07T20:55:59.094Z,2.60
2023-10-07T20:58:45.904Z,3.10
2023-10-07T21:01:32.702Z,2.80
2023-10-07T21:04:20.425Z,3.10
2023-10-07T21:07:07.707Z,3.30
2023-10-07T21:09:54.505Z,2.80
2023-10-07T21:12:41.271Z,2.60
2023-10-07T21:15:36.892Z,2.90
2023-10-07T21:18:24.568Z,2.70
2023-10-07T21:21:13.588Z,2.70
2023-10-07T21:24:00.251Z,2.50
2023-10-07T21:26:49.245Z,2.60
2023-10-07T21:29:36.276Z,2.70
2023-10-07T21:32:23.343Z,2.80
2023-10-07T21:35:10.652Z,2.90
2023-10-07T21:37:57.290Z,2.80
2023-10-07T21:40:45.209Z,2.90
2023-10-07T21:43:32.767Z,3.50
2023-10-07T21:46:20.920Z,2.70
2023-10-07T21:49:08.742Z,2.60
2023-10-07T21:51:56.030Z,2.60
2023-10-07T21:54:42.847Z,2.60
2023-10-07T21:57:29.712Z,2.50
2023-10-07T22:00:25.954Z,2.40
2023-10-07T22:03:20.604Z,2.60
2023-10-07T22:06:07.723Z,3.00
2023-10-07T22:08:54.515Z,2.90
2023-10-07T22:11:42.540Z,3.10
2023-10-07T22:14:29.142Z,2.80
2023-10-07T22:17:16.231Z,2.80
2023-10-07T22:20:04.006Z,2.80
2023-10-07T22:22:52.702Z,2.70
2023-10-07T22:25:41.719Z,2.70
2023-10-07T22:28:28.639Z,2.60
2023-10-07T22:31:15.467Z,2.70
2023-10-07T22:34:02.752Z,2.90
2023-10-07T22:36:55.849Z,2.30
2023-10-07T22:39:45.773Z,2.50
2023-10-07T22:42:36.894Z,3.00
2023-10-07T22:45:47.133Z,2.90
2023-10-07T22:48:37.171Z,2.90
2023-10-07T22:51:24.795Z,3.00
2023-10-07T22:54:19.067Z,3.30
2023-10-07T22:57:09.695Z,3.10
2023-10-07T22:59:56.705Z,2.70
2023-10-07T23:02:43.366Z,3.10
2023-10-07T23:05:31.400Z,2.90
2023-10-07T23:08:19.800Z,3.10
2023-10-07T23:11:10.916Z,3.20
2023-10-07T23:14:09.778Z,2.80
2023-10-07T23:16:56.351Z,2.90
2023-10-07T23:19:43.690Z,3.10
2023-10-07T23:22:30.494Z,3.60
2023-10-07T23:25:19.942Z,3.30
2023-10-07T23:28:22.027Z,3.20
2023-10-07T23:31:11.862Z,3.50
2023-10-07T23:34:11.269Z,3.80
2023-10-07T23:37:00.180Z,4.50
2023-10-07T23:39:58.497Z,2.50
2023-10-07T23:42:45.592Z,1.70
2023-10-07T23:45:36.574Z,1.00
2023-10-07T23:48:26.726Z,0.80
2023-10-07T23:51:20.518Z,1.30
2023-10-07T23:54:15.202Z,0.80
2023-10-07T23:57:17.601Z,1.40
